createdAt,value
2018-06-09T00:01:57.529Z,13.00
2018-06-09T00:04:26.221Z,11.80
2018-06-09T00:06:54.702Z,16.23
2018-06-09T00:09:23.310Z,13.60
2018-06-09T00:11:52.410Z,12.93
2018-06-09T00:14:21.122Z,14.43
2018-06-09T00:16:50.421Z,15.00
2018-06-09T00:19:19.107Z,15.40
2018-06-09T00:21:47.819Z,11.30
2018-06-09T00:24:16.600Z,12.57
2018-06-09T00:26:45.304Z,11.80
2018-06-09T00:29:14.019Z,11.60
2018-06-09T00:31:42.806Z,11.47
2018-06-09T00:34:11.553Z,11.80
2018-06-09T00:36:40.270Z,11.00
2018-06-09T00:39:08.981Z,10.80
2018-06-09T00:41:37.653Z,11.60
2018-06-09T00:44:06.445Z,12.30
2018-06-09T00:46:35.107Z,12.60
2018-06-09T00:49:03.886Z,11.87
2018-06-09T00:51:32.608Z,12.60
2018-06-09T00:54:01.290Z,11.57
2018-06-09T00:56:41.873Z,12.63
2018-06-09T00:59:10.693Z,12.90
2018-06-09T01:01:39.392Z,12.37
2018-06-09T01:04:08.129Z,13.50
2018-06-09T01:06:36.612Z,11.80
2018-06-09T01:09:07.597Z,11.40
2018-06-09T01:11:36.529Z,11.50
2018-06-09T01:14:05.308Z,11.90
2018-06-09T01:16:33.819Z,12.93
2018-06-09T01:19:02.458Z,11.17
2018-06-09T01:21:31.182Z,11.53
2018-06-09T01:23:59.959Z,11.60
2018-06-09T01:26:28.516Z,12.30
2018-06-09T01:28:57.134Z,11.63
2018-06-09T01:31:25.876Z,10.73
2018-06-09T01:33:54.569Z,12.17
2018-06-09T01:36:23.236Z,12.63
2018-06-09T01:38:51.990Z,12.23
2018-06-09T01:41:20.700Z,12.00
2018-06-09T01:43:49.405Z,24.70
2018-06-09T01:46:18.097Z,13.87
2018-06-09T01:48:46.797Z,12.17
2018-06-09T01:51:15.513Z,12.57
2018-06-09T01:53:44.286Z,12.77
2018-06-09T01:56:12.997Z,11.80
2018-06-09T01:58:41.683Z,12.60
2018-06-09T02:01:10.395Z,11.53
2018-06-09T02:03:39.043Z,12.30
2018-06-09T02:06:07.766Z,11.83
2018-06-09T02:08:36.453Z,12.07
2018-06-09T02:11:05.169Z,13.57
2018-06-09T02:13:34.825Z,12.73
2018-06-09T02:16:03.590Z,12.90
2018-06-09T02:18:32.248Z,13.00
2018-06-09T02:21:00.957Z,13.63
2018-06-09T02:23:30.138Z,13.83
2018-06-09T02:25:58.787Z,13.90
2018-06-09T02:28:27.540Z,14.77
2018-06-09T02:30:56.214Z,14.23
2018-06-09T02:33:24.923Z,13.53
2018-06-09T02:35:53.607Z,13.20
2018-06-09T02:38:22.323Z,14.50
2018-06-09T02:40:51.097Z,12.50
2018-06-09T02:43:19.590Z,13.43
2018-06-09T02:45:48.215Z,12.80
2018-06-09T02:48:16.816Z,13.03
2018-06-09T02:50:45.411Z,12.67
2018-06-09T02:53:14.105Z,12.83
2018-06-09T02:55:42.817Z,13.13
2018-06-09T02:58:18.285Z,13.57
2018-06-09T03:00:47.017Z,12.70
2018-06-09T03:03:15.757Z,12.43
2018-06-09T03:05:44.449Z,12.33
2018-06-09T03:08:13.177Z,12.50
2018-06-09T03:10:41.865Z,12.13
2018-06-09T03:13:10.627Z,13.10
2018-06-09T03:15:39.146Z,12.73
2018-06-09T03:18:07.753Z,12.30
2018-06-09T03:20:36.505Z,12.90
2018-06-09T03:23:05.210Z,11.83
2018-06-09T03:25:33.941Z,12.83
2018-06-09T03:28:02.666Z,12.20
2018-06-09T03:30:31.417Z,10.97
2018-06-09T03:33:00.119Z,11.03
2018-06-09T03:35:28.598Z,11.73
2018-06-09T03:37:57.161Z,13.83
2018-06-09T03:40:25.870Z,11.30
2018-06-09T03:42:54.673Z,12.37
2018-06-09T03:45:23.311Z,12.30
2018-06-09T03:47:52.027Z,10.60
2018-06-09T03:50:20.535Z,11.00
2018-06-09T03:52:49.189Z,11.10
2018-06-09T03:55:17.694Z,10.97
2018-06-09T03:57:46.294Z,10.63
2018-06-09T04:00:15.871Z,9.73
2018-06-09T04:02:44.530Z,10.93
2018-06-09T04:05:13.269Z,10.77
2018-06-09T04:07:41.970Z,9.50
2018-06-09T04:10:10.662Z,10.07
2018-06-09T04:12:39.394Z,10.23
2018-06-09T04:15:08.181Z,11.27
2018-06-09T04:17:36.852Z,9.80
2018-06-09T04:20:05.599Z,9.90
2018-06-09T04:22:34.277Z,10.50
2018-06-09T04:25:02.990Z,10.20
2018-06-09T04:27:31.977Z,10.20
2018-06-09T04:30:00.673Z,10.87
2018-06-09T04:32:29.413Z,10.33
2018-06-09T04:34:58.057Z,10.97
2018-06-09T04:37:26.805Z,10.30
2018-06-09T04:39:56.469Z,11.10
2018-06-09T04:42:25.135Z,10.27
2018-06-09T04:44:53.854Z,10.47
2018-06-09T04:47:22.381Z,12.30
2018-06-09T04:49:51.019Z,12.90
2018-06-09T04:52:19.689Z,15.13
2018-06-09T04:54:48.431Z,14.63
2018-06-09T04:57:17.204Z,14.80
2018-06-09T04:59:45.972Z,16.50
2018-06-09T05:02:14.476Z,14.37
2018-06-09T05:04:43.100Z,15.10
2018-06-09T05:07:11.796Z,15.57
2018-06-09T05:09:40.562Z,14.63
2018-06-09T05:12:09.255Z,15.83
2018-06-09T05:14:38.010Z,15.20
2018-06-09T05:17:06.682Z,13.63
2018-06-09T05:19:35.365Z,12.83
2018-06-09T05:22:04.260Z,12.47
2018-06-09T05:24:32.946Z,13.20
2018-06-09T05:27:01.619Z,12.80
2018-06-09T05:29:30.092Z,12.70
2018-06-09T05:31:59.519Z,12.20
2018-06-09T05:34:28.125Z,12.23
2018-06-09T05:36:56.849Z,11.40
2018-06-09T05:39:25.554Z,12.63
2018-06-09T05:41:54.361Z,11.60
2018-06-09T05:44:23.697Z,12.60
2018-06-09T05:46:52.400Z,11.50
2018-06-09T05:49:21.072Z,11.73
2018-06-09T05:51:49.778Z,11.63
2018-06-09T05:54:18.489Z,13.70
2018-06-09T05:56:46.957Z,11.80
2018-06-09T05:59:15.577Z,11.97
2018-06-09T06:01:44.278Z,10.03
2018-06-09T06:04:13.356Z,11.63
2018-06-09T06:06:42.073Z,8.50
2018-06-09T06:09:10.746Z,9.30
2018-06-09T06:11:39.439Z,8.33
2018-06-09T06:14:08.121Z,8.70
2018-06-09T06:16:36.804Z,8.40
2018-06-09T06:19:05.521Z,8.67
2018-06-09T06:21:34.239Z,9.07
2018-06-09T06:24:02.695Z,9.20
2018-06-09T06:26:31.267Z,9.30
2018-06-09T06:28:59.961Z,8.27
2018-06-09T06:31:28.637Z,8.83
2018-06-09T06:33:57.346Z,8.30
2018-06-09T06:36:26.010Z,8.30
2018-06-09T06:38:54.672Z,8.70
2018-06-09T06:41:23.486Z,8.30
2018-06-09T06:43:52.527Z,8.50
2018-06-09T06:46:21.221Z,8.37
2018-06-09T06:48:49.894Z,8.10
2018-06-09T06:51:18.377Z,8.17
2018-06-09T06:53:46.940Z,7.33
2018-06-09T06:56:15.678Z,7.50
2018-06-09T06:58:44.358Z,7.53
2018-06-09T07:01:13.013Z,8.70
2018-06-09T07:03:41.706Z,8.20
2018-06-09T07:06:10.202Z,8.87
2018-06-09T07:08:38.848Z,9.10
2018-06-09T07:11:07.569Z,8.30
2018-06-09T07:13:36.061Z,9.60
2018-06-09T07:16:04.643Z,8.50
2018-06-09T07:18:33.325Z,9.27
2018-06-09T07:21:02.003Z,8.43
2018-06-09T07:23:30.453Z,9.37
2018-06-09T07:25:58.861Z,8.70
2018-06-09T07:28:27.456Z,8.10
2018-06-09T07:30:56.153Z,8.63
2018-06-09T07:33:24.859Z,8.10
2018-06-09T07:35:53.596Z,8.10
2018-06-09T07:38:22.028Z,10.63
2018-06-09T07:40:50.720Z,8.83
2018-06-09T07:43:19.426Z,7.80
2018-06-09T07:45:48.089Z,7.07
2018-06-09T07:48:16.810Z,6.73
2018-06-09T07:50:45.476Z,8.00
2018-06-09T07:53:14.154Z,7.53
2018-06-09T07:55:42.848Z,14.30
2018-06-09T07:58:11.520Z,9.57
2018-06-09T08:00:40.246Z,10.23
2018-06-09T08:03:08.725Z,11.50
2018-06-09T08:05:37.153Z,12.00
2018-06-09T08:08:05.721Z,12.50
2018-06-09T08:10:34.415Z,12.87
2018-06-09T08:13:03.210Z,11.07
2018-06-09T08:15:31.890Z,12.17
2018-06-09T08:18:00.390Z,10.47
2018-06-09T08:20:29.037Z,10.77
2018-06-09T08:22:57.750Z,10.40
2018-06-09T08:25:26.509Z,9.60
2018-06-09T08:27:55.172Z,9.03
2018-06-09T08:30:23.835Z,9.03
2018-06-09T08:32:52.527Z,9.50
2018-06-09T08:35:21.254Z,11.70
2018-06-09T08:37:49.979Z,9.20
2018-06-09T08:40:18.649Z,8.37
2018-06-09T08:42:47.331Z,8.73
2018-06-09T08:45:16.006Z,9.60
2018-06-09T08:47:44.708Z,8.97
2018-06-09T08:50:13.374Z,9.27
2018-06-09T08:52:42.089Z,8.07
2018-06-09T08:55:10.722Z,8.57
2018-06-09T08:57:39.221Z,8.00
2018-06-09T09:00:08.198Z,8.83
2018-06-09T09:02:36.654Z,8.80
2018-06-09T09:05:05.242Z,8.00
2018-06-09T09:07:33.966Z,8.87
2018-06-09T09:10:02.600Z,8.47
2018-06-09T09:12:31.279Z,8.40
2018-06-09T09:14:59.975Z,7.50
2018-06-09T09:17:28.769Z,7.33
2018-06-09T09:19:57.425Z,7.33
2018-06-09T09:22:26.143Z,6.80
2018-06-09T09:24:54.842Z,5.70
2018-06-09T09:27:23.657Z,6.93
2018-06-09T09:29:52.367Z,5.53
2018-06-09T09:32:21.164Z,7.13
2018-06-09T09:34:49.913Z,5.90
2018-06-09T09:37:18.546Z,6.73
2018-06-09T09:39:47.240Z,7.03
2018-06-09T09:42:16.005Z,6.60
2018-06-09T09:44:44.700Z,7.20
2018-06-09T09:47:13.382Z,8.97
2018-06-09T09:49:43.094Z,8.00
2018-06-09T09:52:11.780Z,7.00
2018-06-09T09:54:40.472Z,7.08
2018-06-09T09:57:09.339Z,7.50
2018-06-09T09:59:38.013Z,8.10
2018-06-09T10:02:06.802Z,8.47
2018-06-09T10:04:35.550Z,6.73
2018-06-09T10:07:04.559Z,6.45
2018-06-09T10:09:33.376Z,7.67
2018-06-09T10:12:02.090Z,6.97
2018-06-09T10:14:30.884Z,7.23
2018-06-09T10:16:59.490Z,7.07
2018-06-09T10:19:28.230Z,6.25
2018-06-09T10:21:56.973Z,6.10
2018-06-09T10:24:25.731Z,6.30
2018-06-09T10:26:54.362Z,5.55
2018-06-09T10:29:22.844Z,5.60
2018-06-09T10:31:51.488Z,5.92
2018-06-09T10:34:20.153Z,6.10
2018-06-09T10:36:48.836Z,5.50
2018-06-09T10:39:17.529Z,5.15
2018-06-09T10:41:46.217Z,6.23
2018-06-09T10:44:14.894Z,6.07
2018-06-09T10:46:43.665Z,6.03
2018-06-09T10:49:12.341Z,6.17
2018-06-09T10:51:40.859Z,6.85
2018-06-09T10:54:09.499Z,7.25
2018-06-09T10:56:38.577Z,7.47
2018-06-09T10:59:07.012Z,6.63
2018-06-09T11:01:35.600Z,5.87
2018-06-09T11:04:04.339Z,6.50
2018-06-09T11:06:33.150Z,6.23
2018-06-09T11:09:02.778Z,5.97
2018-06-09T11:11:31.465Z,6.83
2018-06-09T11:14:00.186Z,7.17
2018-06-09T11:16:28.880Z,6.47
2018-06-09T11:18:57.404Z,6.30
2018-06-09T11:21:25.988Z,5.50
2018-06-09T11:23:54.465Z,6.20
2018-06-09T11:26:23.153Z,6.10
2018-06-09T11:28:51.807Z,6.03
2018-06-09T11:31:20.562Z,8.00
2018-06-09T11:33:53.115Z,7.77
2018-06-09T11:36:21.589Z,6.43
2018-06-09T11:38:50.177Z,6.03
2018-06-09T11:41:18.861Z,6.70
2018-06-09T11:43:47.564Z,7.00
2018-06-09T11:46:16.230Z,7.60
2018-06-09T11:48:44.909Z,6.73
2018-06-09T11:51:13.632Z,8.20
2018-06-09T11:53:42.346Z,7.37
2018-06-09T11:56:11.024Z,8.03
2018-06-09T11:58:40.456Z,6.97
2018-06-09T12:01:10.035Z,7.37
2018-06-09T12:03:38.504Z,7.20
2018-06-09T12:06:07.127Z,6.20
2018-06-09T12:08:35.701Z,6.77
2018-06-09T12:11:04.342Z,6.53
2018-06-09T12:13:32.953Z,7.23
2018-06-09T12:16:01.597Z,6.97
2018-06-09T12:18:30.347Z,7.00
2018-06-09T12:21:00.293Z,6.80
2018-06-09T12:23:29.033Z,7.37
2018-06-09T12:25:57.737Z,6.13
2018-06-09T12:28:26.465Z,7.30
2018-06-09T12:30:55.175Z,7.40
2018-06-09T12:33:23.860Z,8.23
2018-06-09T12:35:52.572Z,7.90
2018-06-09T12:38:21.266Z,7.67
2018-06-09T12:40:49.925Z,7.37
2018-06-09T12:43:18.674Z,7.80
2018-06-09T12:45:47.365Z,8.47
2018-06-09T12:48:16.074Z,7.10
2018-06-09T12:50:45.981Z,7.47
2018-06-09T12:53:14.490Z,7.30
2018-06-09T12:55:43.075Z,8.83
2018-06-09T12:58:11.730Z,8.50
2018-06-09T13:00:40.426Z,7.63
2018-06-09T13:03:09.797Z,9.43
2018-06-09T13:05:38.465Z,9.23
2018-06-09T13:08:07.059Z,8.23
2018-06-09T13:10:35.625Z,7.27
2018-06-09T13:13:05.162Z,7.13
2018-06-09T13:15:33.850Z,7.97
2018-06-09T13:18:02.611Z,7.83
2018-06-09T13:20:32.044Z,7.93
2018-06-09T13:23:00.779Z,8.33
2018-06-09T13:25:29.416Z,7.20
2018-06-09T13:27:58.079Z,7.87
2018-06-09T13:30:26.776Z,7.30
2018-06-09T13:32:55.252Z,7.17
2018-06-09T13:35:23.993Z,8.03
2018-06-09T13:37:52.726Z,8.43
2018-06-09T13:40:21.344Z,8.93
2018-06-09T13:42:49.955Z,8.83
2018-06-09T13:45:18.681Z,10.10
2018-06-09T13:47:47.341Z,7.30
2018-06-09T13:50:16.003Z,8.07
2018-06-09T13:52:44.719Z,8.43
2018-06-09T13:55:13.414Z,8.17
2018-06-09T13:57:41.888Z,8.30
2018-06-09T14:00:10.397Z,8.57
2018-06-09T14:02:38.989Z,8.27
2018-06-09T14:05:07.731Z,7.83
2018-06-09T14:07:36.585Z,8.60
2018-06-09T14:10:05.378Z,8.27
2018-06-09T14:12:34.729Z,8.53
2018-06-09T14:15:03.295Z,7.70
2018-06-09T14:17:31.752Z,7.77
2018-06-09T14:20:00.469Z,7.90
2018-06-09T14:22:29.146Z,7.63
2018-06-09T14:24:57.827Z,8.50
2018-06-09T14:27:26.484Z,7.50
2018-06-09T14:29:55.130Z,7.50
2018-06-09T14:32:23.803Z,8.07
2018-06-09T14:34:52.402Z,7.80
2018-06-09T14:37:21.091Z,8.07
2018-06-09T14:39:49.712Z,11.70
2018-06-09T14:42:18.398Z,8.03
2018-06-09T14:44:47.105Z,8.57
2018-06-09T14:47:15.787Z,8.50
2018-06-09T14:49:44.437Z,10.87
2018-06-09T14:52:13.162Z,8.47
2018-06-09T14:54:41.837Z,8.73
2018-06-09T14:57:10.603Z,8.03
2018-06-09T14:59:39.390Z,9.60
2018-06-09T15:02:08.073Z,8.83
2018-06-09T15:04:36.839Z,9.57
2018-06-09T15:07:05.549Z,21.30
2018-06-09T15:09:34.217Z,12.33
2018-06-09T15:12:03.029Z,10.60
2018-06-09T15:14:31.706Z,7.80
2018-06-09T15:17:00.410Z,8.00
2018-06-09T15:19:29.724Z,8.60
2018-06-09T15:21:58.463Z,9.13
2018-06-09T15:24:27.129Z,12.43
2018-06-09T15:26:56.583Z,14.67
2018-06-09T15:29:25.273Z,15.80
2018-06-09T15:31:53.945Z,10.33
2018-06-09T15:34:22.626Z,9.90
2018-06-09T15:36:51.295Z,13.40
2018-06-09T15:39:20.013Z,11.20
2018-06-09T15:41:48.690Z,13.10
2018-06-09T15:44:18.135Z,11.70
2018-06-09T15:46:46.858Z,12.10
2018-06-09T15:49:15.503Z,9.63
2018-06-09T15:51:44.157Z,10.30
2018-06-09T15:54:12.874Z,12.50
2018-06-09T15:56:41.559Z,12.97
2018-06-09T15:59:10.242Z,10.83
2018-06-09T16:01:38.934Z,10.87
2018-06-09T16:04:07.607Z,20.50
2018-06-09T16:06:36.269Z,12.23
2018-06-09T16:09:07.151Z,18.10
2018-06-09T16:11:35.553Z,31.40
2018-06-09T16:14:04.149Z,12.93
2018-06-09T16:16:32.858Z,10.63
2018-06-09T16:19:01.724Z,11.50
2018-06-09T16:21:30.413Z,14.73
2018-06-09T16:23:59.084Z,43.53
2018-06-09T16:26:27.638Z,11.40
2018-06-09T16:28:56.230Z,12.37
2018-06-09T16:31:24.926Z,14.47
2018-06-09T16:33:53.581Z,12.77
2018-06-09T16:36:22.308Z,13.37
2018-06-09T16:38:51.107Z,12.80
2018-06-09T16:41:19.750Z,13.97
2018-06-09T16:43:48.582Z,15.00
2018-06-09T16:46:17.232Z,15.07
2018-06-09T16:48:45.918Z,11.03
2018-06-09T16:51:14.641Z,11.30
2018-06-09T16:53:43.405Z,10.90
2018-06-09T16:56:12.090Z,14.33
2018-06-09T16:58:40.770Z,10.30
2018-06-09T17:01:09.529Z,10.43
2018-06-09T17:03:38.169Z,11.23
2018-06-09T17:06:06.834Z,13.70
2018-06-09T17:08:35.599Z,10.23
2018-06-09T17:11:04.290Z,10.77
2018-06-09T17:13:33.006Z,11.40
2018-06-09T17:16:01.488Z,9.67
2018-06-09T17:18:30.058Z,8.13
2018-06-09T17:20:58.777Z,9.67
2018-06-09T17:23:28.283Z,7.90
2018-06-09T17:25:56.986Z,10.50
2018-06-09T17:28:25.650Z,10.33
2018-06-09T17:30:54.357Z,10.60
2018-06-09T17:33:23.050Z,10.47
2018-06-09T17:35:51.765Z,9.70
2018-06-09T17:38:20.494Z,10.43
2018-06-09T17:40:49.140Z,9.63
2018-06-09T17:43:17.865Z,8.43
2018-06-09T17:45:46.583Z,8.57
2018-06-09T17:48:15.213Z,12.13
2018-06-09T17:50:43.883Z,9.43
2018-06-09T17:53:12.625Z,8.53
2018-06-09T17:55:41.285Z,8.80
2018-06-09T17:58:09.826Z,8.77
2018-06-09T18:00:38.372Z,9.30
2018-06-09T18:03:07.205Z,8.27
2018-06-09T18:05:35.892Z,9.30
2018-06-09T18:08:04.602Z,11.40
2018-06-09T18:10:33.268Z,14.67
2018-06-09T18:13:01.939Z,14.70
2018-06-09T18:15:30.655Z,15.30
2018-06-09T18:17:59.324Z,17.43
2018-06-09T18:20:28.014Z,14.70
2018-06-09T18:22:56.711Z,15.03
2018-06-09T18:25:25.334Z,15.17
2018-06-09T18:27:54.025Z,14.17
2018-06-09T18:30:22.492Z,14.57
2018-06-09T18:32:51.077Z,13.60
2018-06-09T18:35:19.863Z,13.90
2018-06-09T18:37:48.553Z,12.70
2018-06-09T18:40:17.711Z,14.50
2018-06-09T18:42:46.361Z,14.30
2018-06-09T18:45:15.076Z,14.83
2018-06-09T18:47:43.751Z,13.73
2018-06-09T18:50:12.393Z,10.40
2018-06-09T18:52:41.113Z,10.43
2018-06-09T18:55:09.931Z,11.90
2018-06-09T18:57:38.641Z,11.27
2018-06-09T19:00:07.335Z,10.90
2018-06-09T19:02:35.852Z,10.37
2018-06-09T19:05:04.597Z,8.87
2018-06-09T19:07:33.267Z,8.40
2018-06-09T19:10:01.973Z,8.47
2018-06-09T19:12:30.623Z,7.07
2018-06-09T19:14:59.677Z,7.00
2018-06-09T19:17:28.377Z,9.93
2018-06-09T19:19:57.135Z,7.73
2018-06-09T19:22:26.649Z,10.17
2018-06-09T19:24:55.330Z,8.60
2018-06-09T19:27:24.023Z,8.80
2018-06-09T19:29:52.555Z,7.13
2018-06-09T19:32:21.075Z,8.83
2018-06-09T19:34:49.539Z,8.27
2018-06-09T19:37:17.939Z,8.40
2018-06-09T19:39:46.525Z,8.20
2018-06-09T19:42:15.220Z,9.27
2018-06-09T19:44:43.901Z,9.33
2018-06-09T19:47:12.561Z,11.30
2018-06-09T19:49:41.303Z,11.60
2018-06-09T19:52:09.969Z,14.30
2018-06-09T19:54:38.667Z,10.77
2018-06-09T19:57:07.355Z,11.10
2018-06-09T19:59:36.037Z,11.03
2018-06-09T20:02:04.741Z,11.67
2018-06-09T20:04:33.447Z,10.87
2018-06-09T20:07:02.130Z,9.87
2018-06-09T20:09:30.838Z,12.77
2018-06-09T20:11:59.329Z,9.60
2018-06-09T20:14:27.928Z,11.27
2018-06-09T20:16:56.618Z,9.73
2018-06-09T20:19:25.354Z,10.30
2018-06-09T20:21:54.024Z,10.00
2018-06-09T20:24:22.789Z,10.13
2018-06-09T20:26:51.448Z,10.53
2018-06-09T20:29:20.207Z,10.77
2018-06-09T20:31:48.661Z,15.20
2018-06-09T20:34:17.305Z,18.93
2018-06-09T20:36:45.950Z,16.17
2018-06-09T20:39:14.669Z,20.10
2018-06-09T20:41:43.193Z,17.20
2018-06-09T20:44:11.806Z,33.17
2018-06-09T20:46:40.473Z,17.70
2018-06-09T20:49:09.138Z,15.97
2018-06-09T20:51:37.849Z,15.83
2018-06-09T20:54:06.528Z,16.80
2018-06-09T20:56:35.221Z,16.40
2018-06-09T20:59:03.904Z,17.50
2018-06-09T21:01:32.581Z,16.50
2018-06-09T21:04:01.543Z,14.77
2018-06-09T21:06:30.262Z,15.10
2018-06-09T21:08:58.908Z,14.83
2018-06-09T21:11:27.613Z,16.20
2018-06-09T21:13:56.362Z,20.37
2018-06-09T21:16:25.018Z,13.50
2018-06-09T21:18:53.694Z,13.00
2018-06-09T21:21:22.401Z,12.70
2018-06-09T21:23:51.070Z,20.13
2018-06-09T21:26:19.738Z,14.07
2018-06-09T21:28:53.685Z,13.00
2018-06-09T21:31:27.797Z,11.80
2018-06-09T21:34:07.963Z,12.37
2018-06-09T21:36:42.102Z,11.60
2018-06-09T21:39:16.269Z,11.47
2018-06-09T21:41:52.114Z,11.90
2018-06-09T21:44:26.322Z,12.67
2018-06-09T21:46:55.028Z,12.33
2018-06-09T21:49:23.705Z,11.90
2018-06-09T21:51:52.413Z,11.30
2018-06-09T21:54:21.173Z,15.53
2018-06-09T21:56:49.821Z,13.13
2018-06-09T21:59:18.517Z,14.77
2018-06-09T22:01:47.166Z,13.50
2018-06-09T22:04:16.685Z,13.93
2018-06-09T22:06:45.236Z,12.33
2018-06-09T22:09:13.852Z,13.07
2018-06-09T22:11:42.525Z,13.17
2018-06-09T22:14:11.834Z,14.40
2018-06-09T22:16:40.371Z,13.20
2018-06-09T22:19:08.966Z,13.40
2018-06-09T22:21:37.664Z,15.70
2018-06-09T22:24:06.345Z,14.10
2018-06-09T22:26:35.062Z,14.83
2018-06-09T22:29:03.525Z,13.83
2018-06-09T22:31:32.196Z,14.60
2018-06-09T22:34:00.889Z,13.30
2018-06-09T22:36:29.687Z,12.60
2018-06-09T22:38:58.419Z,12.47
2018-06-09T22:41:27.097Z,12.33
2018-06-09T22:43:55.862Z,12.60
2018-06-09T22:46:24.487Z,12.10
2018-06-09T22:48:53.195Z,13.00
2018-06-09T22:51:21.883Z,12.60
2018-06-09T22:53:50.565Z,13.07
2018-06-09T22:56:19.318Z,13.47
2018-06-09T22:58:48.001Z,12.40
2018-06-09T23:01:16.746Z,12.97
2018-06-09T23:03:45.450Z,11.90
2018-06-09T23:06:14.056Z,11.83
2018-06-09T23:08:42.675Z,12.83
2018-06-09T23:11:11.525Z,13.40
2018-06-09T23:13:40.147Z,13.53
2018-06-09T23:16:08.848Z,13.40
2018-06-09T23:18:37.544Z,13.37
2018-06-09T23:21:06.391Z,14.17
2018-06-09T23:23:35.113Z,12.97
2018-06-09T23:26:03.814Z,12.87
2018-06-09T23:28:32.473Z,14.17
2018-06-09T23:31:01.211Z,12.70
2018-06-09T23:33:29.914Z,41.60
2018-06-09T23:35:58.629Z,12.37
2018-06-09T23:38:27.278Z,13.53
2018-06-09T23:40:55.976Z,13.47
2018-06-09T23:43:24.650Z,12.80
2018-06-09T23:45:53.362Z,13.87
2018-06-09T23:48:22.047Z,15.43
2018-06-09T23:50:50.776Z,13.50
2018-06-09T23:53:19.437Z,13.67
2018-06-09T23:55:48.126Z,14.23
2018-06-09T23:58:17.349Z,14.17
